sensor_id;sensor_type;location;lat;lon;timestamp;P1;durP1;ratioP1;P2;durP2;ratioP2
9838;SDS011;4958;48.150;11.506;2024-01-07T00:05:35;9.53;;;8.33;;
9838;SDS011;4958;48.150;11.506;2024-01-07T00:08:22;9.23;;;8.33;;
9838;SDS011;4958;48.150;11.506;2024-01-07T00:10:48;9.27;;;8.30;;
9838;SDS011;4958;48.150;11.506;2024-01-07T00:13:15;9.40;;;8.10;;
9838;SDS011;4958;48.150;11.506;2024-01-07T00:15:53;9.63;;;8.67;;
9838;SDS011;4958;48.150;11.506;2024-01-07T00:19:00;9.57;;;8.30;;
9838;SDS011;4958;48.150;11.506;2024-01-07T00:27:11;9.53;;;8.50;;
9838;SDS011;4958;48.150;11.506;2024-01-07T00:29:43;8.97;;;7.90;;
9838;SDS011;4958;48.150;11.506;2024-01-07T00:32:30;9.37;;;8.30;;
9838;SDS011;4958;48.150;11.506;2024-01-07T00:34:57;9.07;;;8.17;;
9838;SDS011;4958;48.150;11.506;2024-01-07T00:37:25;9.20;;;8.23;;
9838;SDS011;4958;48.150;11.506;2024-01-07T00:40:11;8.90;;;8.00;;
9838;SDS011;4958;48.150;11.506;2024-01-07T00:42:38;9.57;;;8.57;;
9838;SDS011;4958;48.150;11.506;2024-01-07T00:45:05;9.07;;;8.17;;
9838;SDS011;4958;48.150;11.506;2024-01-07T00:47:32;8.70;;;7.80;;
9838;SDS011;4958;48.150;11.506;2024-01-07T00:50:12;9.57;;;8.60;;
9838;SDS011;4958;48.150;11.506;2024-01-07T00:52:41;9.07;;;7.97;;
9838;SDS011;4958;48.150;11.506;2024-01-07T00:55:15;9.60;;;8.20;;
9838;SDS011;4958;48.150;11.506;2024-01-07T00:57:51;9.20;;;8.27;;
9838;SDS011;4958;48.150;11.506;2024-01-07T01:00:18;9.57;;;8.57;;
9838;SDS011;4958;48.150;11.506;2024-01-07T01:03:08;9.57;;;8.37;;
9838;SDS011;4958;48.150;11.506;2024-01-07T01:05:35;9.00;;;8.10;;
9838;SDS011;4958;48.150;11.506;2024-01-07T01:08:02;9.40;;;8.50;;
9838;SDS011;4958;48.150;11.506;2024-01-07T01:10:30;8.93;;;8.00;;
9838;SDS011;4958;48.150;11.506;2024-01-07T01:12:56;9.30;;;8.40;;
9838;SDS011;4958;48.150;11.506;2024-01-07T01:15:23;9.70;;;8.70;;
9838;SDS011;4958;48.150;11.506;2024-01-07T01:18:00;9.23;;;8.30;;
9838;SDS011;4958;48.150;11.506;2024-01-07T01:20:27;9.40;;;8.40;;
9838;SDS011;4958;48.150;11.506;2024-01-07T01:22:53;9.07;;;8.17;;
9838;SDS011;4958;48.150;11.506;2024-01-07T01:25:20;9.33;;;8.43;;
9838;SDS011;4958;48.150;11.506;2024-01-07T01:27:56;9.33;;;8.43;;
9838;SDS011;4958;48.150;11.506;2024-01-07T01:30:23;8.67;;;7.77;;
9838;SDS011;4958;48.150;11.506;2024-01-07T01:32:50;9.20;;;8.30;;
9838;SDS011;4958;48.150;11.506;2024-01-07T01:35:16;9.97;;;8.90;;
9838;SDS011;4958;48.150;11.506;2024-01-07T01:37:59;9.67;;;8.67;;
9838;SDS011;4958;48.150;11.506;2024-01-07T01:40:26;9.23;;;8.33;;
9838;SDS011;4958;48.150;11.506;2024-01-07T01:42:57;8.90;;;8.00;;
9838;SDS011;4958;48.150;11.506;2024-01-07T01:45:39;9.13;;;8.23;;
9838;SDS011;4958;48.150;11.506;2024-01-07T01:48:06;9.50;;;8.60;;
9838;SDS011;4958;48.150;11.506;2024-01-07T01:50:33;8.70;;;7.80;;
9838;SDS011;4958;48.150;11.506;2024-01-07T01:56:24;8.70;;;7.90;;
9838;SDS011;4958;48.150;11.506;2024-01-07T01:58:54;9.07;;;8.17;;
9838;SDS011;4958;48.150;11.506;2024-01-07T02:01:21;8.33;;;7.53;;
9838;SDS011;4958;48.150;11.506;2024-01-07T02:04:02;8.57;;;7.67;;
9838;SDS011;4958;48.150;11.506;2024-01-07T02:06:29;8.30;;;7.50;;
9838;SDS011;4958;48.150;11.506;2024-01-07T02:09:18;8.53;;;7.63;;
9838;SDS011;4958;48.150;11.506;2024-01-07T02:11:59;8.97;;;8.07;;
9838;SDS011;4958;48.150;11.506;2024-01-07T02:14:38;8.40;;;7.60;;
9838;SDS011;4958;48.150;11.506;2024-01-07T02:17:05;7.60;;;6.80;;
9838;SDS011;4958;48.150;11.506;2024-01-07T02:19:31;9.00;;;8.10;;
9838;SDS011;4958;48.150;11.506;2024-01-07T02:21:58;8.57;;;7.77;;
9838;SDS011;4958;48.150;11.506;2024-01-07T02:24:38;7.90;;;7.10;;
9838;SDS011;4958;48.150;11.506;2024-01-07T02:27:04;8.17;;;7.37;;
9838;SDS011;4958;48.150;11.506;2024-01-07T02:29:56;8.27;;;7.47;;
9838;SDS011;4958;48.150;11.506;2024-01-07T02:32:22;8.17;;;7.40;;
9838;SDS011;4958;48.150;11.506;2024-01-07T02:34:51;8.27;;;7.47;;
9838;SDS011;4958;48.150;11.506;2024-01-07T02:37:29;7.90;;;7.20;;
9838;SDS011;4958;48.150;11.506;2024-01-07T02:40:11;8.97;;;7.20;;
9838;SDS011;4958;48.150;11.506;2024-01-07T02:42:45;7.63;;;6.93;;
9838;SDS011;4958;48.150;11.506;2024-01-07T02:45:34;8.10;;;7.30;;
9838;SDS011;4958;48.150;11.506;2024-01-07T02:48:30;7.83;;;7.13;;
9838;SDS011;4958;48.150;11.506;2024-01-07T02:53:41;7.87;;;7.10;;
9838;SDS011;4958;48.150;11.506;2024-01-07T02:56:30;8.23;;;7.43;;
9838;SDS011;4958;48.150;11.506;2024-01-07T02:58:57;8.30;;;7.50;;
9838;SDS011;4958;48.150;11.506;2024-01-07T03:01:29;7.97;;;7.27;;
9838;SDS011;4958;48.150;11.506;2024-01-07T03:04:09;7.43;;;6.73;;
9838;SDS011;4958;48.150;11.506;2024-01-07T03:06:37;8.30;;;7.50;;
9838;SDS011;4958;48.150;11.506;2024-01-07T03:09:03;8.37;;;7.57;;
9838;SDS011;4958;48.150;11.506;2024-01-07T03:11:31;7.80;;;7.10;;
9838;SDS011;4958;48.150;11.506;2024-01-07T03:13:57;8.17;;;7.37;;
9838;SDS011;4958;48.150;11.506;2024-01-07T03:16:37;7.87;;;7.07;;
9838;SDS011;4958;48.150;11.506;2024-01-07T03:19:03;7.50;;;6.80;;
9838;SDS011;4958;48.150;11.506;2024-01-07T03:24:18;7.67;;;6.87;;
9838;SDS011;4958;48.150;11.506;2024-01-07T03:26:45;7.80;;;7.00;;
9838;SDS011;4958;48.150;11.506;2024-01-07T03:30:30;7.80;;;7.00;;
9838;SDS011;4958;48.150;11.506;2024-01-07T03:32:01;7.47;;;6.63;;
9838;SDS011;4958;48.150;11.506;2024-01-07T03:34:27;8.37;;;7.57;;
9838;SDS011;4958;48.150;11.506;2024-01-07T03:37:16;7.37;;;6.67;;
9838;SDS011;4958;48.150;11.506;2024-01-07T03:39:43;7.80;;;7.10;;
9838;SDS011;4958;48.150;11.506;2024-01-07T03:42:11;7.50;;;6.70;;
9838;SDS011;4958;48.150;11.506;2024-01-07T03:44:38;7.33;;;6.63;;
9838;SDS011;4958;48.150;11.506;2024-01-07T03:47:22;7.70;;;6.77;;
9838;SDS011;4958;48.150;11.506;2024-01-07T03:49:54;7.83;;;7.13;;
9838;SDS011;4958;48.150;11.506;2024-01-07T03:52:35;7.63;;;6.67;;
9838;SDS011;4958;48.150;11.506;2024-01-07T03:55:01;7.63;;;6.93;;
9838;SDS011;4958;48.150;11.506;2024-01-07T03:57:30;7.43;;;6.73;;
9838;SDS011;4958;48.150;11.506;2024-01-07T03:59:58;7.13;;;6.43;;
9838;SDS011;4958;48.150;11.506;2024-01-07T04:02:36;7.33;;;6.63;;
9838;SDS011;4958;48.150;11.506;2024-01-07T04:05:03;7.60;;;6.97;;
9838;SDS011;4958;48.150;11.506;2024-01-07T04:07:30;7.27;;;6.60;;
9838;SDS011;4958;48.150;11.506;2024-01-07T04:10:03;7.47;;;6.77;;
9838;SDS011;4958;48.150;11.506;2024-01-07T04:12:40;7.40;;;6.70;;
9838;SDS011;4958;48.150;11.506;2024-01-07T04:15:07;7.60;;;6.83;;
9838;SDS011;4958;48.150;11.506;2024-01-07T04:18:00;7.43;;;6.70;;
9838;SDS011;4958;48.150;11.506;2024-01-07T04:21:15;7.33;;;6.63;;
9838;SDS011;4958;48.150;11.506;2024-01-07T04:23:58;7.73;;;6.93;;
9838;SDS011;4958;48.150;11.506;2024-01-07T04:26:24;7.77;;;7.07;;
9838;SDS011;4958;48.150;11.506;2024-01-07T04:31:36;7.90;;;7.20;;
9838;SDS011;4958;48.150;11.506;2024-01-07T04:34:03;7.30;;;6.60;;
9838;SDS011;4958;48.150;11.506;2024-01-07T04:36:34;7.10;;;6.40;;
9838;SDS011;4958;48.150;11.506;2024-01-07T04:39:52;7.47;;;6.77;;
9838;SDS011;4958;48.150;11.506;2024-01-07T04:42:29;7.53;;;6.83;;
9838;SDS011;4958;48.150;11.506;2024-01-07T04:45:12;7.03;;;6.43;;
9838;SDS011;4958;48.150;11.506;2024-01-07T04:50:30;6.97;;;6.33;;
9838;SDS011;4958;48.150;11.506;2024-01-07T04:53:00;7.50;;;6.80;;
9838;SDS011;4958;48.150;11.506;2024-01-07T04:57:48;7.37;;;6.67;;
9838;SDS011;4958;48.150;11.506;2024-01-07T04:58:56;7.73;;;7.03;;
9838;SDS011;4958;48.150;11.506;2024-01-07T05:01:42;8.03;;;7.23;;
9838;SDS011;4958;48.150;11.506;2024-01-07T05:04:17;7.90;;;7.20;;
9838;SDS011;4958;48.150;11.506;2024-01-07T05:07:01;7.30;;;6.60;;
9838;SDS011;4958;48.150;11.506;2024-01-07T05:12:24;7.63;;;6.83;;
9838;SDS011;4958;48.150;11.506;2024-01-07T05:14:54;7.63;;;6.93;;
9838;SDS011;4958;48.150;11.506;2024-01-07T05:17:41;8.00;;;7.17;;
9838;SDS011;4958;48.150;11.506;2024-01-07T05:20:08;7.80;;;7.10;;
9838;SDS011;4958;48.150;11.506;2024-01-07T05:22:57;7.90;;;7.20;;
9838;SDS011;4958;48.150;11.506;2024-01-07T05:25:29;7.43;;;6.73;;
9838;SDS011;4958;48.150;11.506;2024-01-07T05:28:12;8.50;;;7.70;;
9838;SDS011;4958;48.150;11.506;2024-01-07T05:30:44;8.07;;;6.93;;
9838;SDS011;4958;48.150;11.506;2024-01-07T05:33:36;8.33;;;7.53;;
9838;SDS011;4958;48.150;11.506;2024-01-07T05:36:03;8.40;;;7.60;;
9838;SDS011;4958;48.150;11.506;2024-01-07T05:38:30;8.40;;;7.60;;
9838;SDS011;4958;48.150;11.506;2024-01-07T05:41:13;8.50;;;7.70;;
9838;SDS011;4958;48.150;11.506;2024-01-07T05:43:39;8.30;;;7.50;;
9838;SDS011;4958;48.150;11.506;2024-01-07T05:46:06;8.50;;;7.70;;
9838;SDS011;4958;48.150;11.506;2024-01-07T05:51:21;7.57;;;6.87;;
9838;SDS011;4958;48.150;11.506;2024-01-07T05:53:47;7.83;;;7.10;;
9838;SDS011;4958;48.150;11.506;2024-01-07T05:56:13;8.13;;;7.33;;
9838;SDS011;4958;48.150;11.506;2024-01-07T05:58:40;7.77;;;7.07;;
9838;SDS011;4958;48.150;11.506;2024-01-07T06:01:18;8.20;;;7.40;;
9838;SDS011;4958;48.150;11.506;2024-01-07T06:03:45;7.53;;;6.73;;
9838;SDS011;4958;48.150;11.506;2024-01-07T06:06:14;7.83;;;7.07;;
9838;SDS011;4958;48.150;11.506;2024-01-07T06:08:40;7.80;;;7.00;;
9838;SDS011;4958;48.150;11.506;2024-01-07T06:11:07;7.70;;;6.77;;
9838;SDS011;4958;48.150;11.506;2024-01-07T06:13:44;7.23;;;6.53;;
9838;SDS011;4958;48.150;11.506;2024-01-07T06:16:10;8.33;;;6.33;;
9838;SDS011;4958;48.150;11.506;2024-01-07T06:18:39;8.60;;;6.60;;
9838;SDS011;4958;48.150;11.506;2024-01-07T06:21:06;6.80;;;6.10;;
9838;SDS011;4958;48.150;11.506;2024-01-07T06:23:34;6.27;;;5.63;;
9838;SDS011;4958;48.150;11.506;2024-01-07T06:26:10;7.13;;;6.40;;
9838;SDS011;4958;48.150;11.506;2024-01-07T06:28:36;6.10;;;5.50;;
9838;SDS011;4958;48.150;11.506;2024-01-07T06:31:03;6.23;;;5.63;;
9838;SDS011;4958;48.150;11.506;2024-01-07T06:33:48;6.27;;;5.70;;
9838;SDS011;4958;48.150;11.506;2024-01-07T06:36:22;6.03;;;5.43;;
9838;SDS011;4958;48.150;11.506;2024-01-07T06:38:55;6.67;;;5.97;;
9838;SDS011;4958;48.150;11.506;2024-01-07T06:41:28;6.30;;;5.70;;
9838;SDS011;4958;48.150;11.506;2024-01-07T06:43:55;6.00;;;5.50;;
9838;SDS011;4958;48.150;11.506;2024-01-07T06:46:45;6.37;;;5.77;;
9838;SDS011;4958;48.150;11.506;2024-01-07T06:49:20;5.97;;;5.37;;
9838;SDS011;4958;48.150;11.506;2024-01-07T06:51:47;6.33;;;5.73;;
9838;SDS011;4958;48.150;11.506;2024-01-07T06:54:36;6.10;;;5.50;;
9838;SDS011;4958;48.150;11.506;2024-01-07T06:57:04;5.87;;;5.27;;
9838;SDS011;4958;48.150;11.506;2024-01-07T06:59:30;6.00;;;5.37;;
9838;SDS011;4958;48.150;11.506;2024-01-07T07:01:58;6.30;;;5.43;;
9838;SDS011;4958;48.150;11.506;2024-01-07T07:04:33;6.03;;;5.40;;
9838;SDS011;4958;48.150;11.506;2024-01-07T07:07:00;6.00;;;5.40;;
9838;SDS011;4958;48.150;11.506;2024-01-07T07:09:26;5.73;;;5.20;;
9838;SDS011;4958;48.150;11.506;2024-01-07T07:11:54;5.30;;;4.80;;
9838;SDS011;4958;48.150;11.506;2024-01-07T07:14:35;5.90;;;5.30;;
9838;SDS011;4958;48.150;11.506;2024-01-07T07:17:01;5.70;;;5.13;;
9838;SDS011;4958;48.150;11.506;2024-01-07T07:19:51;5.97;;;5.37;;
9838;SDS011;4958;48.150;11.506;2024-01-07T07:22:19;5.87;;;5.27;;
9838;SDS011;4958;48.150;11.506;2024-01-07T07:24:46;5.90;;;5.30;;
9838;SDS011;4958;48.150;11.506;2024-01-07T07:27:16;6.97;;;6.27;;
9838;SDS011;4958;48.150;11.506;2024-01-07T07:29:52;6.70;;;5.37;;
9838;SDS011;4958;48.150;11.506;2024-01-07T07:32:19;6.73;;;6.03;;
9838;SDS011;4958;48.150;11.506;2024-01-07T07:34:45;6.17;;;5.57;;
9838;SDS011;4958;48.150;11.506;2024-01-07T07:37:15;6.57;;;5.70;;
9838;SDS011;4958;48.150;11.506;2024-01-07T07:39:56;6.17;;;5.57;;
9838;SDS011;4958;48.150;11.506;2024-01-07T07:42:24;6.57;;;5.77;;
9838;SDS011;4958;48.150;11.506;2024-01-07T07:44:57;6.67;;;5.93;;
9838;SDS011;4958;48.150;11.506;2024-01-07T07:47:41;5.87;;;5.27;;
9838;SDS011;4958;48.150;11.506;2024-01-07T07:50:09;5.70;;;5.13;;
9838;SDS011;4958;48.150;11.506;2024-01-07T07:52:36;6.00;;;5.40;;
9838;SDS011;4958;48.150;11.506;2024-01-07T07:55:19;6.30;;;5.60;;
9838;SDS011;4958;48.150;11.506;2024-01-07T07:57:47;6.17;;;5.53;;
9838;SDS011;4958;48.150;11.506;2024-01-07T08:00:14;7.87;;;5.90;;
9838;SDS011;4958;48.150;11.506;2024-01-07T08:03:03;6.37;;;5.77;;
9838;SDS011;4958;48.150;11.506;2024-01-07T08:05:31;9.17;;;6.10;;
9838;SDS011;4958;48.150;11.506;2024-01-07T08:07:59;6.47;;;5.77;;
9838;SDS011;4958;48.150;11.506;2024-01-07T08:10:41;7.23;;;6.53;;
9838;SDS011;4958;48.150;11.506;2024-01-07T08:17:08;6.43;;;5.83;;
9838;SDS011;4958;48.150;11.506;2024-01-07T08:19:35;6.27;;;5.60;;
9838;SDS011;4958;48.150;11.506;2024-01-07T08:22:07;6.40;;;5.80;;
9838;SDS011;4958;48.150;11.506;2024-01-07T08:24:51;7.70;;;6.17;;
9838;SDS011;4958;48.150;11.506;2024-01-07T08:27:19;7.53;;;6.50;;
9838;SDS011;4958;48.150;11.506;2024-01-07T08:30:17;6.73;;;6.03;;
9838;SDS011;4958;48.150;11.506;2024-01-07T08:33:08;6.60;;;5.90;;
9838;SDS011;4958;48.150;11.506;2024-01-07T08:35:34;6.30;;;5.70;;
9838;SDS011;4958;48.150;11.506;2024-01-07T08:38:24;6.73;;;6.03;;
9838;SDS011;4958;48.150;11.506;2024-01-07T08:40:51;6.77;;;5.90;;
9838;SDS011;4958;48.150;11.506;2024-01-07T08:43:18;6.97;;;5.83;;
9838;SDS011;4958;48.150;11.506;2024-01-07T08:49:07;7.97;;;6.53;;
9838;SDS011;4958;48.150;11.506;2024-01-07T08:52:03;6.67;;;5.93;;
9838;SDS011;4958;48.150;11.506;2024-01-07T08:55:03;7.57;;;6.60;;
9838;SDS011;4958;48.150;11.506;2024-01-07T08:57:35;12.33;;;7.37;;
9838;SDS011;4958;48.150;11.506;2024-01-07T09:00:16;9.53;;;7.47;;
9838;SDS011;4958;48.150;11.506;2024-01-07T09:02:45;8.90;;;7.20;;
9838;SDS011;4958;48.150;11.506;2024-01-07T09:05:39;9.43;;;7.67;;
9838;SDS011;4958;48.150;11.506;2024-01-07T09:08:12;7.77;;;6.97;;
9838;SDS011;4958;48.150;11.506;2024-01-07T09:11:00;9.43;;;7.10;;
9838;SDS011;4958;48.150;11.506;2024-01-07T09:13:30;8.53;;;7.73;;
9838;SDS011;4958;48.150;11.506;2024-01-07T09:16:08;8.23;;;7.30;;
9838;SDS011;4958;48.150;11.506;2024-01-07T09:24:32;10.07;;;7.97;;
9838;SDS011;4958;48.150;11.506;2024-01-07T09:27:21;7.93;;;7.13;;
9838;SDS011;4958;48.150;11.506;2024-01-07T09:29:48;8.77;;;7.40;;
9838;SDS011;4958;48.150;11.506;2024-01-07T09:32:17;9.40;;;7.57;;
9838;SDS011;4958;48.150;11.506;2024-01-07T09:34:47;8.37;;;7.40;;
9838;SDS011;4958;48.150;11.506;2024-01-07T09:37:18;10.23;;;8.70;;
9838;SDS011;4958;48.150;11.506;2024-01-07T09:39:47;11.83;;;9.70;;
9838;SDS011;4958;48.150;11.506;2024-01-07T09:42:16;10.03;;;8.43;;
9838;SDS011;4958;48.150;11.506;2024-01-07T09:46:00;9.63;;;7.93;;
9838;SDS011;4958;48.150;11.506;2024-01-07T09:48:07;8.20;;;7.07;;
9838;SDS011;4958;48.150;11.506;2024-01-07T09:51:06;8.27;;;7.40;;
9838;SDS011;4958;48.150;11.506;2024-01-07T10:00:32;9.53;;;7.37;;
9838;SDS011;4958;48.150;11.506;2024-01-07T10:03:29;8.53;;;7.53;;
9838;SDS011;4958;48.150;11.506;2024-01-07T10:06:04;8.40;;;6.93;;
9838;SDS011;4958;48.150;11.506;2024-01-07T10:08:43;8.03;;;7.13;;
9838;SDS011;4958;48.150;11.506;2024-01-07T10:11:10;7.70;;;6.70;;
9838;SDS011;4958;48.150;11.506;2024-01-07T10:13:41;8.20;;;7.40;;
9838;SDS011;4958;48.150;11.506;2024-01-07T10:16:07;8.00;;;7.03;;
9838;SDS011;4958;48.150;11.506;2024-01-07T10:18:34;8.07;;;7.27;;
9838;SDS011;4958;48.150;11.506;2024-01-07T10:21:03;8.50;;;7.60;;
9838;SDS011;4958;48.150;11.506;2024-01-07T10:23:30;8.27;;;7.23;;
9838;SDS011;4958;48.150;11.506;2024-01-07T10:25:57;7.73;;;6.90;;
9838;SDS011;4958;48.150;11.506;2024-01-07T10:28:23;8.67;;;7.00;;
9838;SDS011;4958;48.150;11.506;2024-01-07T10:30:51;9.27;;;7.47;;
9838;SDS011;4958;48.150;11.506;2024-01-07T10:33:18;7.70;;;6.90;;
9838;SDS011;4958;48.150;11.506;2024-01-07T10:35:47;8.03;;;7.10;;
9838;SDS011;4958;48.150;11.506;2024-01-07T10:38:17;8.47;;;7.20;;
9838;SDS011;4958;48.150;11.506;2024-01-07T10:40:44;8.70;;;7.53;;
9838;SDS011;4958;48.150;11.506;2024-01-07T10:43:13;7.57;;;6.77;;
9838;SDS011;4958;48.150;11.506;2024-01-07T10:45:41;7.73;;;6.60;;
9838;SDS011;4958;48.150;11.506;2024-01-07T10:48:18;9.13;;;7.13;;
9838;SDS011;4958;48.150;11.506;2024-01-07T10:50:45;9.23;;;7.27;;
9838;SDS011;4958;48.150;11.506;2024-01-07T10:53:17;7.70;;;6.90;;
9838;SDS011;4958;48.150;11.506;2024-01-07T10:55:45;8.60;;;7.00;;
9838;SDS011;4958;48.150;11.506;2024-01-07T10:58:19;8.60;;;7.53;;
9838;SDS011;4958;48.150;11.506;2024-01-07T11:00:46;7.73;;;6.90;;
9838;SDS011;4958;48.150;11.506;2024-01-07T11:03:14;9.03;;;6.63;;
9838;SDS011;4958;48.150;11.506;2024-01-07T11:05:49;8.50;;;7.17;;
9838;SDS011;4958;48.150;11.506;2024-01-07T11:08:22;8.80;;;7.40;;
9838;SDS011;4958;48.150;11.506;2024-01-07T11:10:53;7.73;;;6.87;;
9838;SDS011;4958;48.150;11.506;2024-01-07T11:13:35;7.97;;;7.10;;
9838;SDS011;4958;48.150;11.506;2024-01-07T11:16:03;8.83;;;7.57;;
9838;SDS011;4958;48.150;11.506;2024-01-07T11:18:32;9.00;;;7.77;;
9838;SDS011;4958;48.150;11.506;2024-01-07T11:21:00;8.23;;;7.33;;
9838;SDS011;4958;48.150;11.506;2024-01-07T11:23:28;9.93;;;8.00;;
9838;SDS011;4958;48.150;11.506;2024-01-07T11:25:57;9.50;;;7.83;;
9838;SDS011;4958;48.150;11.506;2024-01-07T11:31:13;8.77;;;6.70;;
9838;SDS011;4958;48.150;11.506;2024-01-07T11:33:44;6.20;;;5.57;;
9838;SDS011;4958;48.150;11.506;2024-01-07T11:36:14;6.17;;;5.40;;
9838;SDS011;4958;48.150;11.506;2024-01-07T11:38:42;6.50;;;5.77;;
9838;SDS011;4958;48.150;11.506;2024-01-07T11:41:09;6.97;;;6.10;;
9838;SDS011;4958;48.150;11.506;2024-01-07T11:43:38;7.40;;;5.87;;
9838;SDS011;4958;48.150;11.506;2024-01-07T11:46:17;6.20;;;5.60;;
9838;SDS011;4958;48.150;11.506;2024-01-07T11:48:45;6.30;;;5.70;;
9838;SDS011;4958;48.150;11.506;2024-01-07T11:51:12;7.03;;;5.97;;
9838;SDS011;4958;48.150;11.506;2024-01-07T11:53:38;7.83;;;5.57;;
9838;SDS011;4958;48.150;11.506;2024-01-07T11:56:08;6.03;;;5.43;;
9838;SDS011;4958;48.150;11.506;2024-01-07T11:58:34;5.87;;;5.20;;
9838;SDS011;4958;48.150;11.506;2024-01-07T12:01:01;6.10;;;5.50;;
9838;SDS011;4958;48.150;11.506;2024-01-07T12:03:28;5.77;;;5.23;;
9838;SDS011;4958;48.150;11.506;2024-01-07T12:05:58;5.80;;;5.20;;
9838;SDS011;4958;48.150;11.506;2024-01-07T12:08:24;6.60;;;5.90;;
9838;SDS011;4958;48.150;11.506;2024-01-07T12:11:01;5.87;;;5.27;;
9838;SDS011;4958;48.150;11.506;2024-01-07T12:13:28;6.87;;;5.67;;
9838;SDS011;4958;48.150;11.506;2024-01-07T12:15:55;7.10;;;5.97;;
9838;SDS011;4958;48.150;11.506;2024-01-07T12:18:21;6.70;;;6.00;;
9838;SDS011;4958;48.150;11.506;2024-01-07T12:20:56;7.07;;;5.90;;
9838;SDS011;4958;48.150;11.506;2024-01-07T12:23:24;7.30;;;6.40;;
9838;SDS011;4958;48.150;11.506;2024-01-07T12:25:51;5.60;;;5.00;;
9838;SDS011;4958;48.150;11.506;2024-01-07T12:28:18;6.33;;;5.73;;
9838;SDS011;4958;48.150;11.506;2024-01-07T12:30:44;6.50;;;5.47;;
9838;SDS011;4958;48.150;11.506;2024-01-07T12:33:11;6.43;;;5.50;;
9838;SDS011;4958;48.150;11.506;2024-01-07T12:35:37;5.83;;;5.30;;
9838;SDS011;4958;48.150;11.506;2024-01-07T12:38:05;6.03;;;5.43;;
9838;SDS011;4958;48.150;11.506;2024-01-07T12:40:34;6.13;;;5.53;;
9838;SDS011;4958;48.150;11.506;2024-01-07T12:43:01;5.90;;;5.33;;
9838;SDS011;4958;48.150;11.506;2024-01-07T12:45:28;6.60;;;5.60;;
9838;SDS011;4958;48.150;11.506;2024-01-07T12:47:58;5.97;;;5.37;;
9838;SDS011;4958;48.150;11.506;2024-01-07T12:50:27;5.93;;;5.33;;
9838;SDS011;4958;48.150;11.506;2024-01-07T12:53:00;6.83;;;6.13;;
9838;SDS011;4958;48.150;11.506;2024-01-07T13:15:16;7.07;;;5.33;;
9838;SDS011;4958;48.150;11.506;2024-01-07T13:17:43;6.50;;;5.70;;
9838;SDS011;4958;48.150;11.506;2024-01-07T13:20:09;6.60;;;5.87;;
9838;SDS011;4958;48.150;11.506;2024-01-07T13:22:57;6.67;;;5.70;;
9838;SDS011;4958;48.150;11.506;2024-01-07T13:25:25;6.47;;;5.70;;
9838;SDS011;4958;48.150;11.506;2024-01-07T13:38:08;6.00;;;5.30;;
9838;SDS011;4958;48.150;11.506;2024-01-07T13:48:14;6.33;;;5.67;;
9838;SDS011;4958;48.150;11.506;2024-01-07T13:51:09;6.27;;;5.67;;
9838;SDS011;4958;48.150;11.506;2024-01-07T13:53:38;6.87;;;5.60;;
9838;SDS011;4958;48.150;11.506;2024-01-07T13:56:08;6.07;;;5.47;;
9838;SDS011;4958;48.150;11.506;2024-01-07T13:58:34;5.60;;;5.10;;
9838;SDS011;4958;48.150;11.506;2024-01-07T14:03:38;6.93;;;6.20;;
9838;SDS011;4958;48.150;11.506;2024-01-07T14:06:12;8.70;;;6.30;;
9838;SDS011;4958;48.150;11.506;2024-01-07T14:11:22;8.33;;;6.60;;
9838;SDS011;4958;48.150;11.506;2024-01-07T14:13:53;7.87;;;6.27;;
9838;SDS011;4958;48.150;11.506;2024-01-07T14:16:21;6.77;;;5.97;;
9838;SDS011;4958;48.150;11.506;2024-01-07T14:18:50;6.70;;;6.00;;
9838;SDS011;4958;48.150;11.506;2024-01-07T14:21:16;6.53;;;5.80;;
9838;SDS011;4958;48.150;11.506;2024-01-07T14:23:44;6.57;;;5.87;;
9838;SDS011;4958;48.150;11.506;2024-01-07T14:26:12;8.57;;;6.37;;
9838;SDS011;4958;48.150;11.506;2024-01-07T14:28:40;6.87;;;6.17;;
9838;SDS011;4958;48.150;11.506;2024-01-07T14:31:06;6.53;;;5.83;;
9838;SDS011;4958;48.150;11.506;2024-01-07T14:33:33;6.77;;;6.07;;
9838;SDS011;4958;48.150;11.506;2024-01-07T14:36:01;6.70;;;6.00;;
9838;SDS011;4958;48.150;11.506;2024-01-07T14:38:28;6.87;;;6.10;;
9838;SDS011;4958;48.150;11.506;2024-01-07T14:40:55;6.47;;;5.77;;
9838;SDS011;4958;48.150;11.506;2024-01-07T14:43:23;6.73;;;6.03;;
9838;SDS011;4958;48.150;11.506;2024-01-07T14:45:50;7.57;;;5.80;;
9838;SDS011;4958;48.150;11.506;2024-01-07T14:48:21;12.20;;;6.87;;
9838;SDS011;4958;48.150;11.506;2024-01-07T14:50:58;6.77;;;6.03;;
9838;SDS011;4958;48.150;11.506;2024-01-07T14:53:42;6.70;;;6.00;;
9838;SDS011;4958;48.150;11.506;2024-01-07T14:56:09;6.90;;;6.10;;
9838;SDS011;4958;48.150;11.506;2024-01-07T14:58:54;7.23;;;6.30;;
9838;SDS011;4958;48.150;11.506;2024-01-07T15:01:29;7.70;;;6.30;;
9838;SDS011;4958;48.150;11.506;2024-01-07T15:04:08;7.47;;;6.20;;
9838;SDS011;4958;48.150;11.506;2024-01-07T15:06:40;6.77;;;6.03;;
9838;SDS011;4958;48.150;11.506;2024-01-07T15:09:11;7.30;;;6.50;;
9838;SDS011;4958;48.150;11.506;2024-01-07T15:11:48;7.43;;;6.60;;
9838;SDS011;4958;48.150;11.506;2024-01-07T15:14:28;7.40;;;6.60;;
9838;SDS011;4958;48.150;11.506;2024-01-07T15:19:43;7.00;;;6.30;;
9838;SDS011;4958;48.150;11.506;2024-01-07T15:22:19;8.17;;;7.30;;
9838;SDS011;4958;48.150;11.506;2024-01-07T15:24:54;7.93;;;6.83;;
9838;SDS011;4958;48.150;11.506;2024-01-07T15:27:26;8.33;;;6.80;;
9838;SDS011;4958;48.150;11.506;2024-01-07T15:39:51;8.40;;;7.23;;
9838;SDS011;4958;48.150;11.506;2024-01-07T15:43:19;9.53;;;7.60;;
9838;SDS011;4958;48.150;11.506;2024-01-07T15:56:11;10.03;;;7.67;;
9838;SDS011;4958;48.150;11.506;2024-01-07T16:05:40;7.47;;;6.67;;
9838;SDS011;4958;48.150;11.506;2024-01-07T16:08:09;8.30;;;7.13;;
9838;SDS011;4958;48.150;11.506;2024-01-07T16:10:55;8.70;;;7.30;;
9838;SDS011;4958;48.150;11.506;2024-01-07T16:13:27;8.57;;;7.03;;
9838;SDS011;4958;48.150;11.506;2024-01-07T16:16:05;8.57;;;7.30;;
9838;SDS011;4958;48.150;11.506;2024-01-07T16:18:34;8.20;;;7.27;;
9838;SDS011;4958;48.150;11.506;2024-01-07T16:21:10;8.13;;;7.33;;
9838;SDS011;4958;48.150;11.506;2024-01-07T16:27:12;8.90;;;8.00;;
9838;SDS011;4958;48.150;11.506;2024-01-07T16:43:32;13.17;;;8.20;;
9838;SDS011;4958;48.150;11.506;2024-01-07T16:46:36;10.37;;;8.40;;
9838;SDS011;4958;48.150;11.506;2024-01-07T16:49:39;9.67;;;7.90;;
9838;SDS011;4958;48.150;11.506;2024-01-07T16:56:18;8.60;;;7.37;;
9838;SDS011;4958;48.150;11.506;2024-01-07T16:59:17;8.33;;;7.03;;
9838;SDS011;4958;48.150;11.506;2024-01-07T17:08:56;10.13;;;7.53;;
9838;SDS011;4958;48.150;11.506;2024-01-07T17:11:31;8.93;;;8.03;;
9838;SDS011;4958;48.150;11.506;2024-01-07T17:13:58;8.83;;;7.83;;
9838;SDS011;4958;48.150;11.506;2024-01-07T17:16:26;8.67;;;7.60;;
9838;SDS011;4958;48.150;11.506;2024-01-07T17:18:59;12.37;;;7.97;;
9838;SDS011;4958;48.150;11.506;2024-01-07T17:21:25;8.83;;;7.60;;
9838;SDS011;4958;48.150;11.506;2024-01-07T17:23:54;10.90;;;8.47;;
9838;SDS011;4958;48.150;11.506;2024-01-07T17:26:21;9.00;;;7.40;;
9838;SDS011;4958;48.150;11.506;2024-01-07T17:28:49;9.03;;;7.43;;
9838;SDS011;4958;48.150;11.506;2024-01-07T17:31:17;8.37;;;7.47;;
9838;SDS011;4958;48.150;11.506;2024-01-07T17:33:45;8.03;;;7.23;;
9838;SDS011;4958;48.150;11.506;2024-01-07T17:36:14;9.87;;;8.57;;
9838;SDS011;4958;48.150;11.506;2024-01-07T17:38:43;9.17;;;8.13;;
9838;SDS011;4958;48.150;11.506;2024-01-07T17:41:10;8.50;;;7.57;;
9838;SDS011;4958;48.150;11.506;2024-01-07T17:43:37;9.03;;;8.13;;
9838;SDS011;4958;48.150;11.506;2024-01-07T17:46:05;11.10;;;8.33;;
9838;SDS011;4958;48.150;11.506;2024-01-07T17:48:32;9.17;;;8.17;;
9838;SDS011;4958;48.150;11.506;2024-01-07T17:51:00;8.80;;;7.87;;
9838;SDS011;4958;48.150;11.506;2024-01-07T17:53:28;9.77;;;7.90;;
9838;SDS011;4958;48.150;11.506;2024-01-07T17:55:56;10.80;;;8.37;;
9838;SDS011;4958;48.150;11.506;2024-01-07T17:58:22;8.83;;;7.70;;
9838;SDS011;4958;48.150;11.506;2024-01-07T18:00:49;8.80;;;7.57;;
9838;SDS011;4958;48.150;11.506;2024-01-07T18:03:18;10.00;;;7.97;;
9838;SDS011;4958;48.150;11.506;2024-01-07T18:05:44;11.17;;;7.80;;
9838;SDS011;4958;48.150;11.506;2024-01-07T18:08:12;9.60;;;7.93;;
9838;SDS011;4958;48.150;11.506;2024-01-07T18:10:41;9.43;;;7.80;;